sensor_id;sensor_type;location;lat;lon;timestamp;P1;durP1;ratioP1;P2;durP2;ratioP2
42488;SDS011;28118;52.388;9.452;2022-08-19T00:00:25;9.18;;;8.05;;
42488;SDS011;28118;52.388;9.452;2022-08-19T00:02:53;10.77;;;8.75;;
42488;SDS011;28118;52.388;9.452;2022-08-19T00:05:21;10.25;;;8.52;;
42488;SDS011;28118;52.388;9.452;2022-08-19T00:07:48;9.48;;;8.43;;
42488;SDS011;28118;52.388;9.452;2022-08-19T00:10:16;12.93;;;8.90;;
42488;SDS011;28118;52.388;9.452;2022-08-19T00:12:45;8.68;;;7.80;;
42488;SDS011;28118;52.388;9.452;2022-08-19T00:15:14;13.77;;;11.68;;
42488;SDS011;28118;52.388;9.452;2022-08-19T00:17:43;13.68;;;10.80;;
42488;SDS011;28118;52.388;9.452;2022-08-19T00:20:12;13.77;;;11.27;;
42488;SDS011;28118;52.388;9.452;2022-08-19T00:22:43;13.73;;;9.35;;
42488;SDS011;28118;52.388;9.452;2022-08-19T00:25:11;13.80;;;10.80;;
42488;SDS011;28118;52.388;9.452;2022-08-19T00:27:40;15.98;;;8.90;;
42488;SDS011;28118;52.388;9.452;2022-08-19T00:30:07;12.90;;;9.50;;
42488;SDS011;28118;52.388;9.452;2022-08-19T00:32:36;11.77;;;9.10;;
42488;SDS011;28118;52.388;9.452;2022-08-19T00:35:05;14.25;;;11.88;;
42488;SDS011;28118;52.388;9.452;2022-08-19T00:37:32;13.45;;;9.93;;
42488;SDS011;28118;52.388;9.452;2022-08-19T00:40:02;15.88;;;10.10;;
42488;SDS011;28118;52.388;9.452;2022-08-19T00:42:31;9.13;;;8.43;;
42488;SDS011;28118;52.388;9.452;2022-08-19T00:44:58;10.80;;;9.13;;
42488;SDS011;28118;52.388;9.452;2022-08-19T00:47:24;12.50;;;9.48;;
42488;SDS011;28118;52.388;9.452;2022-08-19T00:49:54;15.75;;;11.35;;
42488;SDS011;28118;52.388;9.452;2022-08-19T00:52:30;15.55;;;10.13;;
42488;SDS011;28118;52.388;9.452;2022-08-19T00:55:01;12.13;;;10.57;;
42488;SDS011;28118;52.388;9.452;2022-08-19T00:57:33;14.85;;;12.25;;
42488;SDS011;28118;52.388;9.452;2022-08-19T01:00:06;10.07;;;9.15;;
42488;SDS011;28118;52.388;9.452;2022-08-19T01:02:37;11.30;;;10.13;;
42488;SDS011;28118;52.388;9.452;2022-08-19T01:05:05;20.48;;;10.75;;
42488;SDS011;28118;52.388;9.452;2022-08-19T01:07:34;14.27;;;11.75;;
42488;SDS011;28118;52.388;9.452;2022-08-19T01:10:04;15.85;;;11.45;;
42488;SDS011;28118;52.388;9.452;2022-08-19T01:12:33;11.32;;;9.80;;
42488;SDS011;28118;52.388;9.452;2022-08-19T01:15:00;11.15;;;9.82;;
42488;SDS011;28118;52.388;9.452;2022-08-19T01:17:27;14.02;;;12.02;;
42488;SDS011;28118;52.388;9.452;2022-08-19T01:19:54;13.13;;;10.38;;
42488;SDS011;28118;52.388;9.452;2022-08-19T01:24:58;11.68;;;10.48;;
42488;SDS011;28118;52.388;9.452;2022-08-19T01:27:25;17.38;;;10.98;;
42488;SDS011;28118;52.388;9.452;2022-08-19T01:30:08;12.50;;;10.10;;
42488;SDS011;28118;52.388;9.452;2022-08-19T01:32:38;12.88;;;9.88;;
42488;SDS011;28118;52.388;9.452;2022-08-19T01:35:04;14.10;;;10.30;;
42488;SDS011;28118;52.388;9.452;2022-08-19T01:37:41;13.25;;;11.93;;
42488;SDS011;28118;52.388;9.452;2022-08-19T01:40:09;18.90;;;12.25;;
42488;SDS011;28118;52.388;9.452;2022-08-19T01:42:37;11.60;;;10.52;;
42488;SDS011;28118;52.388;9.452;2022-08-19T01:45:04;22.10;;;11.57;;
42488;SDS011;28118;52.388;9.452;2022-08-19T01:47:36;16.95;;;10.35;;
42488;SDS011;28118;52.388;9.452;2022-08-19T01:50:04;13.70;;;10.95;;
42488;SDS011;28118;52.388;9.452;2022-08-19T01:52:35;17.45;;;11.68;;
42488;SDS011;28118;52.388;9.452;2022-08-19T01:55:03;13.40;;;11.48;;
42488;SDS011;28118;52.388;9.452;2022-08-19T01:57:31;11.25;;;10.07;;
42488;SDS011;28118;52.388;9.452;2022-08-19T01:59:58;12.63;;;10.20;;
42488;SDS011;28118;52.388;9.452;2022-08-19T02:02:26;11.27;;;10.02;;
42488;SDS011;28118;52.388;9.452;2022-08-19T02:04:52;13.73;;;12.05;;
42488;SDS011;28118;52.388;9.452;2022-08-19T02:07:20;20.65;;;14.07;;
42488;SDS011;28118;52.388;9.452;2022-08-19T02:09:50;13.40;;;11.98;;
42488;SDS011;28118;52.388;9.452;2022-08-19T02:12:16;11.18;;;10.07;;
42488;SDS011;28118;52.388;9.452;2022-08-19T02:14:43;17.55;;;13.05;;
42488;SDS011;28118;52.388;9.452;2022-08-19T02:17:10;12.45;;;11.18;;
42488;SDS011;28118;52.388;9.452;2022-08-19T02:19:36;11.93;;;10.82;;
42488;SDS011;28118;52.388;9.452;2022-08-19T02:22:06;12.98;;;11.63;;
42488;SDS011;28118;52.388;9.452;2022-08-19T02:24:32;13.75;;;10.63;;
42488;SDS011;28118;52.388;9.452;2022-08-19T02:27:00;17.80;;;11.40;;
42488;SDS011;28118;52.388;9.452;2022-08-19T02:29:26;12.50;;;11.23;;
42488;SDS011;28118;52.388;9.452;2022-08-19T02:31:53;11.57;;;10.20;;
42488;SDS011;28118;52.388;9.452;2022-08-19T02:34:20;15.50;;;11.35;;
42488;SDS011;28118;52.388;9.452;2022-08-19T02:36:46;14.65;;;13.13;;
42488;SDS011;28118;52.388;9.452;2022-08-19T02:39:17;17.02;;;12.20;;
42488;SDS011;28118;52.388;9.452;2022-08-19T02:41:45;17.70;;;11.57;;
42488;SDS011;28118;52.388;9.452;2022-08-19T02:44:12;11.77;;;10.63;;
42488;SDS011;28118;52.388;9.452;2022-08-19T02:46:56;15.57;;;11.70;;
42488;SDS011;28118;52.388;9.452;2022-08-19T02:49:23;11.98;;;10.55;;
42488;SDS011;28118;52.388;9.452;2022-08-19T02:51:50;11.20;;;10.20;;
42488;SDS011;28118;52.388;9.452;2022-08-19T02:54:16;12.95;;;11.63;;
42488;SDS011;28118;52.388;9.452;2022-08-19T02:56:43;12.50;;;11.35;;
42488;SDS011;28118;52.388;9.452;2022-08-19T02:59:10;13.40;;;12.05;;
42488;SDS011;28118;52.388;9.452;2022-08-19T03:01:39;14.52;;;13.13;;
42488;SDS011;28118;52.388;9.452;2022-08-19T03:04:08;13.75;;;11.07;;
42488;SDS011;28118;52.388;9.452;2022-08-19T03:06:37;12.27;;;11.18;;
42488;SDS011;28118;52.388;9.452;2022-08-19T03:09:05;11.52;;;10.32;;
42488;SDS011;28118;52.388;9.452;2022-08-19T03:11:32;13.98;;;12.63;;
42488;SDS011;28118;52.388;9.452;2022-08-19T03:14:00;20.10;;;11.93;;
42488;SDS011;28118;52.388;9.452;2022-08-19T03:16:29;14.68;;;11.65;;
42488;SDS011;28118;52.388;9.452;2022-08-19T03:18:59;13.65;;;10.82;;
42488;SDS011;28118;52.388;9.452;2022-08-19T03:21:28;17.35;;;13.38;;
42488;SDS011;28118;52.388;9.452;2022-08-19T03:23:57;13.02;;;11.25;;
42488;SDS011;28118;52.388;9.452;2022-08-19T03:26:26;13.35;;;10.70;;
42488;SDS011;28118;52.388;9.452;2022-08-19T03:28:52;11.45;;;10.35;;
42488;SDS011;28118;52.388;9.452;2022-08-19T03:31:24;17.23;;;11.32;;
42488;SDS011;28118;52.388;9.452;2022-08-19T03:34:12;12.23;;;10.55;;
42488;SDS011;28118;52.388;9.452;2022-08-19T03:36:40;13.82;;;11.05;;
42488;SDS011;28118;52.388;9.452;2022-08-19T03:39:07;14.15;;;10.30;;
42488;SDS011;28118;52.388;9.452;2022-08-19T03:41:36;11.65;;;9.80;;
42488;SDS011;28118;52.388;9.452;2022-08-19T03:44:11;14.95;;;11.40;;
42488;SDS011;28118;52.388;9.452;2022-08-19T03:46:43;12.68;;;10.52;;
42488;SDS011;28118;52.388;9.452;2022-08-19T03:49:11;14.52;;;13.00;;
42488;SDS011;28118;52.388;9.452;2022-08-19T03:51:40;13.98;;;11.20;;
42488;SDS011;28118;52.388;9.452;2022-08-19T03:54:09;13.30;;;11.95;;
42488;SDS011;28118;52.388;9.452;2022-08-19T03:56:37;15.80;;;13.48;;
42488;SDS011;28118;52.388;9.452;2022-08-19T03:59:07;14.45;;;12.52;;
42488;SDS011;28118;52.388;9.452;2022-08-19T04:01:35;18.08;;;14.48;;
42488;SDS011;28118;52.388;9.452;2022-08-19T04:04:02;28.80;;;15.07;;
42488;SDS011;28118;52.388;9.452;2022-08-19T04:06:31;16.02;;;14.30;;
42488;SDS011;28118;52.388;9.452;2022-08-19T04:09:05;15.45;;;13.02;;
42488;SDS011;28118;52.388;9.452;2022-08-19T04:11:35;30.33;;;16.45;;
42488;SDS011;28118;52.388;9.452;2022-08-19T04:14:10;24.92;;;16.98;;
42488;SDS011;28118;52.388;9.452;2022-08-19T04:16:39;21.25;;;16.92;;
42488;SDS011;28118;52.388;9.452;2022-08-19T04:19:06;17.58;;;15.70;;
42488;SDS011;28118;52.388;9.452;2022-08-19T04:21:34;30.20;;;16.20;;
42488;SDS011;28118;52.388;9.452;2022-08-19T04:24:01;24.35;;;16.83;;
42488;SDS011;28118;52.388;9.452;2022-08-19T04:26:30;20.83;;;15.25;;
42488;SDS011;28118;52.388;9.452;2022-08-19T04:28:59;23.98;;;17.88;;
42488;SDS011;28118;52.388;9.452;2022-08-19T04:31:31;22.70;;;15.32;;
42488;SDS011;28118;52.388;9.452;2022-08-19T04:34:03;18.77;;;15.65;;
42488;SDS011;28118;52.388;9.452;2022-08-19T04:36:33;19.92;;;14.32;;
42488;SDS011;28118;52.388;9.452;2022-08-19T04:39:15;21.05;;;16.73;;
42488;SDS011;28118;52.388;9.452;2022-08-19T04:41:46;26.98;;;13.88;;
42488;SDS011;28118;52.388;9.452;2022-08-19T04:44:32;27.80;;;14.52;;
42488;SDS011;28118;52.388;9.452;2022-08-19T04:47:00;17.23;;;12.50;;
42488;SDS011;28118;52.388;9.452;2022-08-19T04:49:36;17.13;;;13.40;;
42488;SDS011;28118;52.388;9.452;2022-08-19T04:52:03;18.48;;;14.65;;
42488;SDS011;28118;52.388;9.452;2022-08-19T04:54:30;14.80;;;13.18;;
42488;SDS011;28118;52.388;9.452;2022-08-19T04:57:04;16.83;;;12.88;;
42488;SDS011;28118;52.388;9.452;2022-08-19T04:59:37;20.88;;;14.15;;
42488;SDS011;28118;52.388;9.452;2022-08-19T05:02:04;15.23;;;13.40;;
42488;SDS011;28118;52.388;9.452;2022-08-19T05:04:34;18.38;;;14.73;;
42488;SDS011;28118;52.388;9.452;2022-08-19T05:07:05;16.65;;;13.85;;
42488;SDS011;28118;52.388;9.452;2022-08-19T05:09:33;14.10;;;12.55;;
42488;SDS011;28118;52.388;9.452;2022-08-19T05:12:20;23.02;;;15.38;;
42488;SDS011;28118;52.388;9.452;2022-08-19T05:14:51;16.23;;;12.88;;
42488;SDS011;28118;52.388;9.452;2022-08-19T05:17:18;15.85;;;14.05;;
42488;SDS011;28118;52.388;9.452;2022-08-19T05:19:56;16.00;;;14.30;;
42488;SDS011;28118;52.388;9.452;2022-08-19T05:22:42;20.67;;;14.75;;
42488;SDS011;28118;52.388;9.452;2022-08-19T05:25:12;30.50;;;17.05;;
42488;SDS011;28118;52.388;9.452;2022-08-19T05:27:41;22.50;;;17.13;;
42488;SDS011;28118;52.388;9.452;2022-08-19T05:30:09;22.60;;;16.60;;
42488;SDS011;28118;52.388;9.452;2022-08-19T05:32:38;18.52;;;16.60;;
42488;SDS011;28118;52.388;9.452;2022-08-19T05:35:05;18.83;;;15.63;;
42488;SDS011;28118;52.388;9.452;2022-08-19T05:37:32;20.45;;;18.08;;
42488;SDS011;28118;52.388;9.452;2022-08-19T05:39:59;22.75;;;18.27;;
42488;SDS011;28118;52.388;9.452;2022-08-19T05:42:27;19.98;;;17.52;;
42488;SDS011;28118;52.388;9.452;2022-08-19T05:44:57;27.58;;;15.70;;
42488;SDS011;28118;52.388;9.452;2022-08-19T05:47:24;19.55;;;17.13;;
42488;SDS011;28118;52.388;9.452;2022-08-19T05:49:51;19.58;;;17.05;;
42488;SDS011;28118;52.388;9.452;2022-08-19T05:52:18;25.73;;;19.90;;
42488;SDS011;28118;52.388;9.452;2022-08-19T05:54:51;23.58;;;18.10;;
42488;SDS011;28118;52.388;9.452;2022-08-19T05:57:22;25.45;;;21.10;;
42488;SDS011;28118;52.388;9.452;2022-08-19T05:59:49;33.85;;;23.38;;
42488;SDS011;28118;52.388;9.452;2022-08-19T06:02:24;34.30;;;21.95;;
42488;SDS011;28118;52.388;9.452;2022-08-19T06:04:52;28.70;;;19.88;;
42488;SDS011;28118;52.388;9.452;2022-08-19T06:07:18;26.00;;;18.98;;
42488;SDS011;28118;52.388;9.452;2022-08-19T06:09:45;30.85;;;21.10;;
42488;SDS011;28118;52.388;9.452;2022-08-19T06:12:25;38.95;;;20.48;;
42488;SDS011;28118;52.388;9.452;2022-08-19T06:15:07;23.55;;;20.88;;
42488;SDS011;28118;52.388;9.452;2022-08-19T06:17:36;29.77;;;22.15;;
42488;SDS011;28118;52.388;9.452;2022-08-19T06:20:04;28.40;;;18.48;;
42488;SDS011;28118;52.388;9.452;2022-08-19T06:22:36;29.08;;;21.45;;
42488;SDS011;28118;52.388;9.452;2022-08-19T06:25:07;26.63;;;20.25;;
42488;SDS011;28118;52.388;9.452;2022-08-19T06:27:37;28.25;;;20.00;;
42488;SDS011;28118;52.388;9.452;2022-08-19T06:30:18;28.80;;;20.08;;
42488;SDS011;28118;52.388;9.452;2022-08-19T06:32:45;32.22;;;21.05;;
42488;SDS011;28118;52.388;9.452;2022-08-19T06:35:12;27.80;;;19.73;;
42488;SDS011;28118;52.388;9.452;2022-08-19T06:37:39;22.83;;;18.85;;
42488;SDS011;28118;52.388;9.452;2022-08-19T06:40:09;20.33;;;18.17;;
42488;SDS011;28118;52.388;9.452;2022-08-19T06:42:38;26.35;;;17.13;;
42488;SDS011;28118;52.388;9.452;2022-08-19T06:45:20;24.20;;;18.58;;
42488;SDS011;28118;52.388;9.452;2022-08-19T06:47:50;19.08;;;16.02;;
42488;SDS011;28118;52.388;9.452;2022-08-19T06:50:22;21.40;;;17.73;;
42488;SDS011;28118;52.388;9.452;2022-08-19T06:52:50;21.73;;;16.23;;
42488;SDS011;28118;52.388;9.452;2022-08-19T06:55:18;23.65;;;18.83;;
42488;SDS011;28118;52.388;9.452;2022-08-19T06:57:45;19.77;;;17.15;;
42488;SDS011;28118;52.388;9.452;2022-08-19T07:00:12;18.70;;;15.88;;
42488;SDS011;28118;52.388;9.452;2022-08-19T07:02:40;36.33;;;17.67;;
42488;SDS011;28118;52.388;9.452;2022-08-19T07:05:20;18.88;;;15.98;;
42488;SDS011;28118;52.388;9.452;2022-08-19T07:07:47;24.50;;;17.98;;
42488;SDS011;28118;52.388;9.452;2022-08-19T07:10:16;33.53;;;19.05;;
42488;SDS011;28118;52.388;9.452;2022-08-19T07:12:43;22.95;;;16.98;;
42488;SDS011;28118;52.388;9.452;2022-08-19T07:15:12;21.38;;;16.90;;
42488;SDS011;28118;52.388;9.452;2022-08-19T07:17:39;24.88;;;17.67;;
42488;SDS011;28118;52.388;9.452;2022-08-19T07:20:07;21.08;;;17.02;;
42488;SDS011;28118;52.388;9.452;2022-08-19T07:22:38;18.85;;;16.10;;
42488;SDS011;28118;52.388;9.452;2022-08-19T07:25:06;17.55;;;12.95;;
42488;SDS011;28118;52.388;9.452;2022-08-19T07:27:34;13.98;;;11.35;;
42488;SDS011;28118;52.388;9.452;2022-08-19T07:30:00;14.15;;;11.52;;
42488;SDS011;28118;52.388;9.452;2022-08-19T07:32:27;14.70;;;11.43;;
42488;SDS011;28118;52.388;9.452;2022-08-19T07:34:55;16.95;;;12.18;;
42488;SDS011;28118;52.388;9.452;2022-08-19T07:37:23;12.63;;;10.00;;
42488;SDS011;28118;52.388;9.452;2022-08-19T07:39:58;11.93;;;10.70;;
42488;SDS011;28118;52.388;9.452;2022-08-19T07:42:26;10.25;;;9.27;;
42488;SDS011;28118;52.388;9.452;2022-08-19T07:44:55;25.45;;;10.00;;
42488;SDS011;28118;52.388;9.452;2022-08-19T07:47:22;16.17;;;11.60;;
42488;SDS011;28118;52.388;9.452;2022-08-19T07:50:09;20.17;;;9.15;;
42488;SDS011;28118;52.388;9.452;2022-08-19T07:52:37;13.80;;;9.65;;
42488;SDS011;28118;52.388;9.452;2022-08-19T07:55:07;16.20;;;10.00;;
42488;SDS011;28118;52.388;9.452;2022-08-19T07:57:55;11.23;;;10.02;;
42488;SDS011;28118;52.388;9.452;2022-08-19T08:00:22;11.15;;;7.30;;
42488;SDS011;28118;52.388;9.452;2022-08-19T08:02:50;8.85;;;6.55;;
42488;SDS011;28118;52.388;9.452;2022-08-19T08:05:20;9.32;;;6.22;;
42488;SDS011;28118;52.388;9.452;2022-08-19T08:08:09;9.27;;;6.38;;
42488;SDS011;28118;52.388;9.452;2022-08-19T08:11:14;11.85;;;6.25;;
42488;SDS011;28118;52.388;9.452;2022-08-19T08:16:25;6.57;;;5.80;;
42488;SDS011;28118;52.388;9.452;2022-08-19T08:18:56;9.43;;;5.35;;
42488;SDS011;28118;52.388;9.452;2022-08-19T08:21:23;6.45;;;5.20;;
42488;SDS011;28118;52.388;9.452;2022-08-19T08:23:50;6.72;;;5.53;;
42488;SDS011;28118;52.388;9.452;2022-08-19T08:26:21;6.00;;;5.38;;
42488;SDS011;28118;52.388;9.452;2022-08-19T08:28:49;6.38;;;4.30;;
42488;SDS011;28118;52.388;9.452;2022-08-19T08:31:16;8.02;;;5.47;;
42488;SDS011;28118;52.388;9.452;2022-08-19T08:33:45;5.75;;;4.78;;
42488;SDS011;28118;52.388;9.452;2022-08-19T08:36:13;5.15;;;4.63;;
42488;SDS011;28118;52.388;9.452;2022-08-19T08:38:40;6.82;;;5.28;;
42488;SDS011;28118;52.388;9.452;2022-08-19T08:43:58;7.72;;;3.83;;
42488;SDS011;28118;52.388;9.452;2022-08-19T08:46:45;5.32;;;4.22;;
42488;SDS011;28118;52.388;9.452;2022-08-19T08:51:57;5.20;;;4.13;;
42488;SDS011;28118;52.388;9.452;2022-08-19T08:54:41;7.43;;;4.43;;
42488;SDS011;28118;52.388;9.452;2022-08-19T09:00:10;7.22;;;4.53;;
42488;SDS011;28118;52.388;9.452;2022-08-19T09:02:43;4.90;;;3.92;;
42488;SDS011;28118;52.388;9.452;2022-08-19T09:05:17;3.58;;;3.13;;
42488;SDS011;28118;52.388;9.452;2022-08-19T09:12:57;8.63;;;5.10;;
42488;SDS011;28118;52.388;9.452;2022-08-19T09:15:36;7.55;;;3.47;;
42488;SDS011;28118;52.388;9.452;2022-08-19T09:18:25;7.07;;;2.65;;
42488;SDS011;28118;52.388;9.452;2022-08-19T09:20:54;6.05;;;3.83;;
42488;SDS011;28118;52.388;9.452;2022-08-19T09:23:22;9.07;;;5.45;;
42488;SDS011;28118;52.388;9.452;2022-08-19T09:25:52;3.92;;;3.03;;
42488;SDS011;28118;52.388;9.452;2022-08-19T09:28:19;4.22;;;3.40;;
42488;SDS011;28118;52.388;9.452;2022-08-19T09:30:52;3.58;;;3.28;;
42488;SDS011;28118;52.388;9.452;2022-08-19T09:33:19;4.72;;;3.35;;
42488;SDS011;28118;52.388;9.452;2022-08-19T09:35:46;5.03;;;4.03;;
42488;SDS011;28118;52.388;9.452;2022-08-19T09:38:18;3.90;;;2.47;;
42488;SDS011;28118;52.388;9.452;2022-08-19T09:40:46;3.45;;;2.65;;
42488;SDS011;28118;52.388;9.452;2022-08-19T09:43:13;7.15;;;2.60;;
42488;SDS011;28118;52.388;9.452;2022-08-19T09:45:40;9.10;;;4.45;;
42488;SDS011;28118;52.388;9.452;2022-08-19T09:48:06;6.90;;;3.20;;
42488;SDS011;28118;52.388;9.452;2022-08-19T09:50:36;6.10;;;3.83;;
42488;SDS011;28118;52.388;9.452;2022-08-19T09:53:17;2.97;;;2.35;;
42488;SDS011;28118;52.388;9.452;2022-08-19T09:55:44;2.63;;;2.13;;
42488;SDS011;28118;52.388;9.452;2022-08-19T09:58:11;3.95;;;2.85;;
42488;SDS011;28118;52.388;9.452;2022-08-19T10:00:38;3.72;;;3.33;;
42488;SDS011;28118;52.388;9.452;2022-08-19T10:03:05;4.03;;;3.17;;
42488;SDS011;28118;52.388;9.452;2022-08-19T10:05:32;8.90;;;3.95;;
42488;SDS011;28118;52.388;9.452;2022-08-19T10:08:15;3.08;;;2.35;;
42488;SDS011;28118;52.388;9.452;2022-08-19T10:10:54;3.72;;;3.25;;
42488;SDS011;28118;52.388;9.452;2022-08-19T10:13:22;7.00;;;4.20;;
42488;SDS011;28118;52.388;9.452;2022-08-19T10:15:53;8.00;;;3.23;;
42488;SDS011;28118;52.388;9.452;2022-08-19T10:18:22;6.65;;;2.88;;
42488;SDS011;28118;52.388;9.452;2022-08-19T10:20:51;2.90;;;2.38;;
42488;SDS011;28118;52.388;9.452;2022-08-19T10:23:20;3.58;;;2.63;;
42488;SDS011;28118;52.388;9.452;2022-08-19T10:25:47;3.58;;;2.65;;
42488;SDS011;28118;52.388;9.452;2022-08-19T10:28:15;2.50;;;2.30;;
42488;SDS011;28118;52.388;9.452;2022-08-19T10:30:44;3.50;;;2.17;;
42488;SDS011;28118;52.388;9.452;2022-08-19T10:33:11;5.53;;;3.58;;
42488;SDS011;28118;52.388;9.452;2022-08-19T10:35:40;2.83;;;2.50;;
42488;SDS011;28118;52.388;9.452;2022-08-19T10:38:22;2.67;;;2.35;;
42488;SDS011;28118;52.388;9.452;2022-08-19T10:40:57;3.28;;;2.85;;
42488;SDS011;28118;52.388;9.452;2022-08-19T10:43:32;7.22;;;3.55;;
42488;SDS011;28118;52.388;9.452;2022-08-19T10:46:01;6.15;;;3.63;;
42488;SDS011;28118;52.388;9.452;2022-08-19T10:48:34;3.63;;;2.65;;
42488;SDS011;28118;52.388;9.452;2022-08-19T10:51:01;5.97;;;4.13;;
42488;SDS011;28118;52.388;9.452;2022-08-19T10:53:49;5.93;;;3.03;;
42488;SDS011;28118;52.388;9.452;2022-08-19T10:56:16;5.15;;;2.88;;
42488;SDS011;28118;52.388;9.452;2022-08-19T10:59:03;3.05;;;2.50;;
42488;SDS011;28118;52.388;9.452;2022-08-19T11:01:31;10.10;;;3.05;;
42488;SDS011;28118;52.388;9.452;2022-08-19T11:04:00;4.07;;;3.67;;
42488;SDS011;28118;52.388;9.452;2022-08-19T11:06:30;4.50;;;4.10;;
42488;SDS011;28118;52.388;9.452;2022-08-19T11:08:58;6.47;;;3.92;;
42488;SDS011;28118;52.388;9.452;2022-08-19T11:11:26;3.97;;;3.58;;
42488;SDS011;28118;52.388;9.452;2022-08-19T11:13:54;13.02;;;4.28;;
42488;SDS011;28118;52.388;9.452;2022-08-19T11:16:22;4.88;;;3.58;;
42488;SDS011;28118;52.388;9.452;2022-08-19T11:18:52;3.67;;;3.30;;
42488;SDS011;28118;52.388;9.452;2022-08-19T11:21:29;2.95;;;2.28;;
42488;SDS011;28118;52.388;9.452;2022-08-19T11:24:02;2.92;;;2.65;;
42488;SDS011;28118;52.388;9.452;2022-08-19T11:26:32;7.15;;;2.47;;
42488;SDS011;28118;52.388;9.452;2022-08-19T11:29:01;3.30;;;2.33;;
42488;SDS011;28118;52.388;9.452;2022-08-19T11:31:30;7.00;;;2.20;;
42488;SDS011;28118;52.388;9.452;2022-08-19T11:33:58;5.90;;;4.00;;
42488;SDS011;28118;52.388;9.452;2022-08-19T11:36:27;2.75;;;2.53;;
42488;SDS011;28118;52.388;9.452;2022-08-19T11:38:54;2.85;;;2.50;;
42488;SDS011;28118;52.388;9.452;2022-08-19T11:41:22;4.53;;;2.97;;
42488;SDS011;28118;52.388;9.452;2022-08-19T11:43:50;2.88;;;2.53;;
42488;SDS011;28118;52.388;9.452;2022-08-19T11:46:18;4.60;;;2.95;;
42488;SDS011;28118;52.388;9.452;2022-08-19T11:48:45;4.15;;;3.72;;
42488;SDS011;28118;52.388;9.452;2022-08-19T11:51:13;3.20;;;2.83;;
42488;SDS011;28118;52.388;9.452;2022-08-19T11:53:44;4.40;;;4.00;;
42488;SDS011;28118;52.388;9.452;2022-08-19T11:56:11;5.38;;;2.35;;
42488;SDS011;28118;52.388;9.452;2022-08-19T11:58:38;4.05;;;2.70;;
42488;SDS011;28118;52.388;9.452;2022-08-19T12:01:09;5.57;;;2.33;;
42488;SDS011;28118;52.388;9.452;2022-08-19T12:03:37;7.70;;;2.80;;
42488;SDS011;28118;52.388;9.452;2022-08-19T12:06:08;5.22;;;2.80;;
42488;SDS011;28118;52.388;9.452;2022-08-19T12:08:39;7.93;;;2.35;;
42488;SDS011;28118;52.388;9.452;2022-08-19T12:11:10;4.88;;;3.80;;
42488;SDS011;28118;52.388;9.452;2022-08-19T12:13:38;3.70;;;3.05;;
42488;SDS011;28118;52.388;9.452;2022-08-19T12:16:08;3.25;;;1.83;;
42488;SDS011;28118;52.388;9.452;2022-08-19T12:18:38;2.92;;;2.20;;
42488;SDS011;28118;52.388;9.452;2022-08-19T12:21:07;4.50;;;2.78;;
42488;SDS011;28118;52.388;9.452;2022-08-19T12:23:36;2.72;;;2.28;;
42488;SDS011;28118;52.388;9.452;2022-08-19T12:26:03;7.13;;;2.65;;
42488;SDS011;28118;52.388;9.452;2022-08-19T12:28:30;4.43;;;2.83;;
42488;SDS011;28118;52.388;9.452;2022-08-19T12:30:57;2.63;;;1.60;;
42488;SDS011;28118;52.388;9.452;2022-08-19T12:33:24;2.33;;;1.80;;
42488;SDS011;28118;52.388;9.452;2022-08-19T12:35:54;2.17;;;1.35;;
42488;SDS011;28118;52.388;9.452;2022-08-19T12:38:21;3.70;;;1.90;;
42488;SDS011;28118;52.388;9.452;2022-08-19T12:40:51;6.35;;;2.67;;
42488;SDS011;28118;52.388;9.452;2022-08-19T12:43:23;1.85;;;1.55;;
42488;SDS011;28118;52.388;9.452;2022-08-19T12:45:50;2.83;;;1.98;;
42488;SDS011;28118;52.388;9.452;2022-08-19T12:48:17;2.50;;;1.58;;
42488;SDS011;28118;52.388;9.452;2022-08-19T12:51:00;6.60;;;1.60;;
42488;SDS011;28118;52.388;9.452;2022-08-19T12:53:31;14.68;;;1.92;;
42488;SDS011;28118;52.388;9.452;2022-08-19T12:55:59;1.77;;;1.08;;
42488;SDS011;28118;52.388;9.452;2022-08-19T12:58:26;8.85;;;2.53;;
42488;SDS011;28118;52.388;9.452;2022-08-19T13:00:54;2.78;;;1.90;;
42488;SDS011;28118;52.388;9.452;2022-08-19T13:03:21;1.67;;;1.08;;
42488;SDS011;28118;52.388;9.452;2022-08-19T13:05:55;2.50;;;2.22;;
42488;SDS011;28118;52.388;9.452;2022-08-19T13:08:22;5.93;;;1.45;;
42488;SDS011;28118;52.388;9.452;2022-08-19T13:10:49;2.03;;;1.30;;
42488;SDS011;28118;52.388;9.452;2022-08-19T13:13:16;1.60;;;1.30;;
42488;SDS011;28118;52.388;9.452;2022-08-19T13:15:43;6.85;;;1.70;;
42488;SDS011;28118;52.388;9.452;2022-08-19T13:18:11;3.22;;;1.40;;
42488;SDS011;28118;52.388;9.452;2022-08-19T13:20:38;1.67;;;1.20;;
42488;SDS011;28118;52.388;9.452;2022-08-19T13:23:07;8.18;;;1.80;;
42488;SDS011;28118;52.388;9.452;2022-08-19T13:25:34;1.90;;;1.25;;
42488;SDS011;28118;52.388;9.452;2022-08-19T13:28:02;2.10;;;1.60;;
42488;SDS011;28118;52.388;9.452;2022-08-19T13:30:29;2.05;;;1.83;;
42488;SDS011;28118;52.388;9.452;2022-08-19T13:33:14;2.25;;;1.95;;
42488;SDS011;28118;52.388;9.452;2022-08-19T13:38:19;2.53;;;1.88;;
42488;SDS011;28118;52.388;9.452;2022-08-19T13:40:48;6.38;;;1.23;;
42488;SDS011;28118;52.388;9.452;2022-08-19T13:43:16;3.03;;;1.55;;
42488;SDS011;28118;52.388;9.452;2022-08-19T13:45:52;1.48;;;1.25;;
42488;SDS011;28118;52.388;9.452;2022-08-19T13:48:22;2.10;;;1.55;;
42488;SDS011;28118;52.388;9.452;2022-08-19T13:50:50;3.15;;;2.03;;
42488;SDS011;28118;52.388;9.452;2022-08-19T13:53:17;3.17;;;1.60;;
42488;SDS011;28118;52.388;9.452;2022-08-19T13:55:44;1.23;;;1.10;;
42488;SDS011;28118;52.388;9.452;2022-08-19T13:58:11;13.50;;;1.88;;
42488;SDS011;28118;52.388;9.452;2022-08-19T14:00:40;2.05;;;1.50;;
42488;SDS011;28118;52.388;9.452;2022-08-19T14:03:09;1.95;;;1.20;;
42488;SDS011;28118;52.388;9.452;2022-08-19T14:05:36;2.78;;;1.60;;
42488;SDS011;28118;52.388;9.452;2022-08-19T14:08:04;7.50;;;1.40;;
42488;SDS011;28118;52.388;9.452;2022-08-19T14:10:31;4.90;;;1.77;;
42488;SDS011;28118;52.388;9.452;2022-08-19T14:12:59;2.15;;;1.13;;
42488;SDS011;28118;52.388;9.452;2022-08-19T14:15:28;1.35;;;1.17;;
42488;SDS011;28118;52.388;9.452;2022-08-19T14:17:55;2.33;;;1.20;;
42488;SDS011;28118;52.388;9.452;2022-08-19T14:20:22;2.80;;;1.35;;
42488;SDS011;28118;52.388;9.452;2022-08-19T14:22:51;1.15;;;1.00;;
42488;SDS011;28118;52.388;9.452;2022-08-19T14:25:21;1.17;;;0.82;;
42488;SDS011;28118;52.388;9.452;2022-08-19T14:27:50;2.08;;;1.42;;
42488;SDS011;28118;52.388;9.452;2022-08-19T14:30:18;1.65;;;1.45;;
42488;SDS011;28118;52.388;9.452;2022-08-19T14:32:51;1.63;;;1.42;;
42488;SDS011;28118;52.388;9.452;2022-08-19T14:35:18;3.17;;;1.40;;
42488;SDS011;28118;52.388;9.452;2022-08-19T14:37:45;3.78;;;2.08;;
42488;SDS011;28118;52.388;9.452;2022-08-19T14:40:13;1.17;;;1.08;;
42488;SDS011;28118;52.388;9.452;2022-08-19T14:42:46;2.03;;;1.42;;
42488;SDS011;28118;52.388;9.452;2022-08-19T14:45:14;2.53;;;1.80;;
42488;SDS011;28118;52.388;9.452;2022-08-19T14:47:41;2.67;;;1.85;;
42488;SDS011;28118;52.388;9.452;2022-08-19T14:50:11;1.85;;;1.33;;
42488;SDS011;28118;52.388;9.452;2022-08-19T14:52:44;3.53;;;1.88;;
42488;SDS011;28118;52.388;9.452;2022-08-19T14:55:14;3.88;;;1.63;;
42488;SDS011;28118;52.388;9.452;2022-08-19T14:57:42;2.03;;;1.13;;
42488;SDS011;28118;52.388;9.452;2022-08-19T15:00:09;5.30;;;1.42;;
42488;SDS011;28118;52.388;9.452;2022-08-19T15:02:40;2.35;;;1.45;;
42488;SDS011;28118;52.388;9.452;2022-08-19T15:05:10;1.30;;;0.80;;
42488;SDS011;28118;52.388;9.452;2022-08-19T15:07:39;1.63;;;1.20;;
42488;SDS011;28118;52.388;9.452;2022-08-19T15:10:07;5.03;;;1.08;;